Time;durP1;ratioP1;P1;durP2;ratioP2;P2;SDS_P1;SDS_P2;PMS_P1;PMS_P2;Temp;Humidity;BMP_temperature;BMP_pressure;BME280_temperature;BME280_humidity;BME280_pressure;Samples;Min_cycle;Max_cycle;Signal;HPM_P1;HPM_P2
2022/03/14 00:00:00;;;;;;;19.45;12.30;;;9.80;63.40;;;;;;4912490;28;167779;-72
2022/03/14 00:02:26;;;;;;;20.55;12.48;;;9.80;64.00;;;;;;4948401;28;20050;-73
2022/03/14 00:04:52;;;;;;;17.92;11.60;;;9.80;65.50;;;;;;4927832;28;151277;-73
2022/03/14 00:07:18;;;;;;;18.85;11.85;;;9.80;66.40;;;;;;4973203;28;20393;-73
2022/03/14 00:09:45;;;;;;;18.65;12.43;;;9.80;66.90;;;;;;4933215;28;234815;-72
2022/03/14 00:12:15;;;;;;;17.05;11.32;;;9.80;67.70;;;;;;4968564;28;20128;-72
2022/03/14 00:14:42;;;;;;;19.67;11.32;;;9.80;69.40;;;;;;4939187;28;153787;-73
2022/03/14 00:17:09;;;;;;;17.30;11.20;;;9.90;70.70;;;;;;4989968;28;20065;-73
2022/03/14 00:19:35;;;;;;;17.75;10.95;;;9.90;72.60;;;;;;4934891;28;261388;-73
2022/03/14 00:22:02;;;;;;;18.48;11.23;;;9.90;74.00;;;;;;4970205;28;20129;-72
2022/03/14 00:24:28;;;;;;;18.05;10.82;;;9.90;75.90;;;;;;4940149;28;253070;-72
2022/03/14 00:26:55;;;;;;;19.08;11.20;;;9.80;77.60;;;;;;4964404;28;20050;-72
2022/03/14 00:29:21;;;;;;;19.13;11.40;;;9.90;79.60;;;;;;4940625;28;258723;-72
2022/03/14 00:31:47;;;;;;;17.75;10.95;;;9.80;81.30;;;;;;4945080;28;20042;-72
2022/03/14 00:34:14;;;;;;;16.92;11.05;;;9.90;83.90;;;;;;4989373;28;84354;-72
2022/03/14 00:36:42;;;;;;;17.33;10.63;;;9.90;84.50;;;;;;4964927;28;20042;-71
2022/03/14 00:39:09;;;;;;;19.27;11.30;;;9.90;86.60;;;;;;4992603;28;255189;-72
2022/03/14 00:41:35;;;;;;;18.50;10.95;;;9.80;87.10;;;;;;4959432;28;20038;-72
2022/03/14 00:44:02;;;;;;;17.90;10.97;;;9.90;88.20;;;;;;4967804;28;248654;-72
2022/03/14 00:46:28;;;;;;;18.05;10.98;;;9.90;90.00;;;;;;4959863;28;20432;-72
2022/03/14 00:48:55;;;;;;;17.67;10.60;;;9.90;91.40;;;;;;4980805;28;275095;-73
2022/03/14 00:51:21;;;;;;;17.77;10.75;;;9.90;91.20;;;;;;4942842;28;20053;-72
2022/03/14 00:53:47;;;;;;;16.92;10.27;;;9.90;92.00;;;;;;4948143;28;251012;-73
2022/03/14 00:56:13;;;;;;;16.17;9.98;;;9.90;92.40;;;;;;4953666;28;20475;-72
2022/03/14 00:58:40;;;;;;;17.40;9.68;;;9.90;93.00;;;;;;4982433;28;20286;-73
2022/03/14 01:01:06;;;;;;;15.57;9.55;;;10.00;93.50;;;;;;4922914;28;187588;-72
2022/03/14 01:03:32;;;;;;;15.10;9.27;;;9.90;93.90;;;;;;4983059;28;20055;-72
2022/03/14 01:05:59;;;;;;;16.00;9.52;;;9.90;94.50;;;;;;4920981;28;186878;-73
2022/03/14 01:08:26;;;;;;;15.45;9.57;;;9.90;94.50;;;;;;4993077;28;20054;-72
2022/03/14 01:10:52;;;;;;;14.77;8.98;;;9.90;94.80;;;;;;4938846;28;95957;-73
2022/03/14 01:13:18;;;;;;;16.10;9.48;;;9.90;94.70;;;;;;4981098;28;20046;-73
2022/03/14 01:15:45;;;;;;;14.93;9.68;;;9.90;94.90;;;;;;4957319;28;37827;-73
2022/03/14 01:18:13;;;;;;;14.55;9.05;;;9.90;95.20;;;;;;4983764;28;20046;-72
2022/03/14 01:20:39;;;;;;;16.45;9.27;;;9.90;95.40;;;;;;4941923;28;134890;-73
2022/03/14 01:23:05;;;;;;;14.75;9.57;;;9.80;95.80;;;;;;4984413;28;21296;-73
2022/03/14 01:25:31;;;;;;;15.00;8.27;;;9.80;96.50;;;;;;4930377;28;21627;-72
2022/03/14 01:27:58;;;;;;;14.80;9.18;;;9.80;97.00;;;;;;4975741;28;20070;-72
2022/03/14 01:30:24;;;;;;;15.48;9.20;;;9.90;97.10;;;;;;4930360;28;268899;-72
2022/03/14 01:32:50;;;;;;;14.40;8.65;;;9.80;97.00;;;;;;4961702;28;20058;-72
2022/03/14 01:35:20;;;;;;;15.55;8.32;;;9.80;97.00;;;;;;4932180;28;246829;-72
2022/03/14 01:37:50;;;;;;;16.83;8.52;;;9.80;97.10;;;;;;4970844;28;20081;-73
2022/03/14 01:40:17;;;;;;;14.60;8.60;;;9.80;97.10;;;;;;4935846;28;73317;-72
2022/03/14 01:42:43;;;;;;;12.68;7.68;;;9.70;97.30;;;;;;4989689;28;20364;-73
2022/03/14 01:45:13;;;;;;;15.98;8.63;;;9.70;97.60;;;;;;4959695;28;80436;-73
2022/03/14 01:47:41;;;;;;;16.05;8.07;;;9.70;97.70;;;;;;4975687;28;20061;-72
2022/03/14 01:50:08;;;;;;;12.77;7.72;;;9.70;97.80;;;;;;4949291;28;150455;-73
2022/03/14 01:52:34;;;;;;;13.88;7.72;;;9.70;98.00;;;;;;4968316;28;20054;-73
2022/03/14 01:55:02;;;;;;;13.63;8.20;;;9.60;98.40;;;;;;4922928;28;74434;-73
2022/03/14 01:57:29;;;;;;;12.93;8.00;;;9.70;98.40;;;;;;4962657;28;20073;-73
2022/03/14 01:59:56;;;;;;;13.38;8.15;;;9.70;98.40;;;;;;4933355;28;137734;-73
2022/03/14 02:02:22;;;;;;;16.23;8.55;;;9.70;98.40;;;;;;4968057;28;20058;-73
2022/03/14 02:04:48;;;;;;;15.95;8.15;;;9.70;98.80;;;;;;4928046;28;155756;-73
2022/03/14 02:07:14;;;;;;;14.50;8.13;;;9.70;99.20;;;;;;4975786;28;20323;-73
2022/03/14 02:09:40;;;;;;;15.05;8.18;;;9.70;99.10;;;;;;4921445;28;250973;-72
2022/03/14 02:12:08;;;;;;;14.48;7.93;;;9.70;99.30;;;;;;4979495;28;20053;-73
2022/03/14 02:14:44;;;;;;;12.20;7.25;;;9.70;99.60;;;;;;4934238;28;248869;-73
2022/03/14 02:17:17;;;;;;;14.32;7.35;;;9.70;99.80;;;;;;4966644;28;20057;-73
2022/03/14 02:19:43;;;;;;;12.68;7.28;;;9.70;99.90;;;;;;4939701;28;119271;-73
2022/03/14 02:22:14;;;;;;;12.60;6.90;;;9.70;99.90;;;;;;4962807;28;20415;-73
2022/03/14 02:24:42;;;;;;;12.55;7.40;;;9.70;99.90;;;;;;4947051;28;117301;-72
2022/03/14 02:27:08;;;;;;;12.38;6.68;;;9.70;99.90;;;;;;4974607;28;20062;-72
2022/03/14 02:29:35;;;;;;;15.00;6.82;;;9.70;99.90;;;;;;4938889;28;20108;-72
2022/03/14 02:32:01;;;;;;;11.40;6.28;;;9.70;99.90;;;;;;4954090;28;20061;-73
2022/03/14 02:34:27;;;;;;;12.32;6.63;;;9.70;99.90;;;;;;4937227;28;180180;-73
2022/03/14 02:36:53;;;;;;;11.77;6.65;;;9.70;99.90;;;;;;4965370;28;20431;-72
2022/03/14 02:39:19;;;;;;;12.48;7.10;;;9.70;99.90;;;;;;4947925;28;204792;-73
2022/03/14 02:41:45;;;;;;;13.27;6.47;;;9.70;99.90;;;;;;4966543;28;20038;-72
2022/03/14 02:44:12;;;;;;;12.80;6.60;;;9.70;99.90;;;;;;4968086;28;186045;-72
2022/03/14 02:46:40;;;;;;;11.38;6.28;;;9.70;99.90;;;;;;4945283;28;20050;-72
2022/03/14 02:49:07;;;;;;;11.20;6.20;;;9.70;99.90;;;;;;5000032;28;275768;-73
2022/03/14 02:51:34;;;;;;;12.50;6.65;;;9.70;99.90;;;;;;4935927;28;20046;-73
2022/03/14 02:54:04;;;;;;;12.68;6.50;;;9.70;99.90;;;;;;4966289;28;256766;-73
2022/03/14 02:56:30;;;;;;;11.63;6.75;;;9.70;99.90;;;;;;4932020;28;20053;-73
2022/03/14 02:58:56;;;;;;;13.33;6.80;;;9.70;99.90;;;;;;4967324;28;264258;-73
2022/03/14 03:01:22;;;;;;;11.88;6.50;;;9.70;99.90;;;;;;4940370;28;20519;-73
2022/03/14 03:03:49;;;;;;;11.80;6.22;;;9.60;99.90;;;;;;4962143;28;250354;-72
2022/03/14 03:06:17;;;;;;;12.77;6.20;;;9.60;99.90;;;;;;4952789;28;20043;-72
2022/03/14 03:08:43;;;;;;;10.95;6.00;;;9.60;99.90;;;;;;4985774;28;20148;-74
2022/03/14 03:11:11;;;;;;;11.68;6.18;;;9.60;99.90;;;;;;4966169;28;255980;-73
2022/03/14 03:13:41;;;;;;;11.48;5.97;;;9.60;99.90;;;;;;4986063;28;20050;-72
2022/03/14 03:16:14;;;;;;;9.85;5.40;;;9.70;99.90;;;;;;4945259;28;49692;-73
2022/03/14 03:18:40;;;;;;;10.52;5.90;;;9.60;99.90;;;;;;4967650;28;20057;-73
2022/03/14 03:21:06;;;;;;;11.55;5.75;;;9.60;99.90;;;;;;4947863;28;46716;-72
2022/03/14 03:23:35;;;;;;;10.98;5.30;;;9.60;99.90;;;;;;5000369;28;20054;-72
2022/03/14 03:26:04;;;;;;;10.43;5.65;;;9.60;99.90;;;;;;4943936;28;20049;-73
2022/03/14 03:28:35;;;;;;;10.50;5.63;;;9.60;99.90;;;;;;4985094;28;20109;-73
2022/03/14 03:31:12;;;;;;;12.15;5.97;;;9.60;99.90;;;;;;4930229;28;152401;-73
2022/03/14 03:33:39;;;;;;;10.38;5.60;;;9.60;99.90;;;;;;5000521;28;20062;-73
2022/03/14 03:36:07;;;;;;;9.85;5.22;;;9.60;99.90;;;;;;4911839;28;235641;-73
2022/03/14 03:38:34;;;;;;;10.20;5.22;;;9.50;99.90;;;;;;4983956;28;20462;-73
2022/03/14 03:41:01;;;;;;;11.73;5.32;;;9.60;99.90;;;;;;4931724;28;254872;-73
2022/03/14 03:43:27;;;;;;;9.40;4.90;;;9.60;99.90;;;;;;4969048;28;20054;-73
2022/03/14 03:45:54;;;;;;;11.32;4.95;;;9.60;99.90;;;;;;4950672;28;262387;-73
2022/03/14 03:48:20;;;;;;;9.73;4.85;;;9.60;99.90;;;;;;4989314;28;20076;-73
2022/03/14 03:50:47;;;;;;;9.30;4.93;;;9.60;99.90;;;;;;4935728;28;275854;-73
2022/03/14 03:53:13;;;;;;;8.90;4.50;;;9.60;99.90;;;;;;4973470;28;20054;-73
2022/03/14 03:55:39;;;;;;;9.10;4.68;;;9.60;99.90;;;;;;4956995;28;190145;-72
2022/03/14 03:58:06;;;;;;;9.88;4.72;;;9.60;99.90;;;;;;4988015;28;20081;-73
2022/03/14 04:00:32;;;;;;;10.65;4.78;;;9.60;99.90;;;;;;4945824;28;103268;-72
2022/03/14 04:02:58;;;;;;;9.45;4.40;;;9.60;99.90;;;;;;5016116;28;20059;-73
2022/03/14 04:05:27;;;;;;;9.30;4.68;;;9.60;99.90;;;;;;4912788;28;148791;-72
2022/03/14 04:08:00;;;;;;;9.98;4.63;;;9.60;99.90;;;;;;4978567;28;20057;-73
2022/03/14 04:10:29;;;;;;;10.57;4.50;;;9.70;99.90;;;;;;4951477;28;149276;-72
2022/03/14 04:13:03;;;;;;;9.55;4.25;;;9.70;99.90;;;;;;4970784;28;20050;-72
2022/03/14 04:15:30;;;;;;;9.77;4.40;;;9.60;99.90;;;;;;4942113;28;73300;-72
2022/03/14 04:18:00;;;;;;;9.15;4.53;;;9.70;99.90;;;;;;4972909;28;20046;-72
2022/03/14 04:20:26;;;;;;;9.23;4.43;;;9.60;99.90;;;;;;4947438;28;263871;-72
2022/03/14 04:22:52;;;;;;;10.07;4.80;;;9.60;99.90;;;;;;4985729;28;20050;-72
2022/03/14 04:25:18;;;;;;;9.35;4.28;;;9.60;99.90;;;;;;4938033;28;267545;-72
2022/03/14 04:27:45;;;;;;;10.45;4.75;;;9.60;99.90;;;;;;4971081;28;20061;-72
2022/03/14 04:30:11;;;;;;;9.30;4.47;;;9.60;99.90;;;;;;4943277;28;98088;-72
2022/03/14 04:32:37;;;;;;;9.25;4.32;;;9.60;99.90;;;;;;4969388;28;20066;-72
2022/03/14 04:35:04;;;;;;;8.77;4.10;;;9.60;99.90;;;;;;4947748;28;184886;-73
2022/03/14 04:37:30;;;;;;;9.00;4.20;;;9.50;99.90;;;;;;5002898;28;20380;-73
2022/03/14 04:39:56;;;;;;;9.45;4.18;;;9.50;99.90;;;;;;4946129;28;277585;-72
2022/03/14 04:42:23;;;;;;;9.50;4.07;;;9.50;99.90;;;;;;4982065;28;20105;-72
2022/03/14 04:44:49;;;;;;;9.00;4.15;;;9.50;99.90;;;;;;4929707;28;20538;-72
2022/03/14 04:47:16;;;;;;;9.02;3.90;;;9.50;99.90;;;;;;4978923;28;20049;-72
2022/03/14 04:49:43;;;;;;;8.70;4.10;;;9.50;99.90;;;;;;4942362;28;254380;-72
2022/03/14 04:52:09;;;;;;;8.77;3.85;;;9.60;99.90;;;;;;5010414;28;20118;-73
2022/03/14 04:54:35;;;;;;;9.88;4.00;;;9.60;99.90;;;;;;4940918;28;203010;-72
2022/03/14 04:57:01;;;;;;;9.43;3.72;;;9.60;99.90;;;;;;4968594;28;20053;-73
2022/03/14 04:59:27;;;;;;;9.57;3.90;;;9.60;99.90;;;;;;4939687;28;221051;-72
2022/03/14 05:01:53;;;;;;;9.18;3.70;;;9.60;99.90;;;;;;4971006;28;20046;-72
2022/03/14 05:04:19;;;;;;;8.95;3.70;;;9.70;99.90;;;;;;4938039;28;152783;-72
2022/03/14 05:06:45;;;;;;;8.73;3.85;;;9.60;99.90;;;;;;4977033;28;20059;-73
2022/03/14 05:09:12;;;;;;;8.57;3.67;;;9.70;99.90;;;;;;4958742;28;215251;-72
2022/03/14 05:11:38;;;;;;;8.55;3.83;;;9.70;99.90;;;;;;4933825;28;20094;-72
2022/03/14 05:14:10;;;;;;;8.25;3.80;;;9.70;99.90;;;;;;4964455;28;248370;-72
2022/03/14 05:16:36;;;;;;;8.63;3.80;;;9.70;99.90;;;;;;4918180;28;20038;-72
2022/03/14 05:19:03;;;;;;;9.13;3.85;;;9.70;99.90;;;;;;4964858;28;265612;-72
2022/03/14 05:21:29;;;;;;;9.13;3.70;;;9.70;99.90;;;;;;4942067;28;20034;-72
2022/03/14 05:23:55;;;;;;;9.10;3.67;;;9.70;99.90;;;;;;4984192;28;251945;-73
2022/03/14 05:26:21;;;;;;;8.35;3.40;;;9.70;99.90;;;;;;4920999;28;20053;-73
2022/03/14 05:28:48;;;;;;;9.02;4.00;;;9.70;99.90;;;;;;4966493;28;259126;-71
2022/03/14 05:31:14;;;;;;;9.63;3.80;;;9.70;99.90;;;;;;4946202;28;20050;-72
2022/03/14 05:33:40;;;;;;;8.70;3.75;;;9.70;99.90;;;;;;4982489;28;20050;-72
2022/03/14 05:36:06;;;;;;;8.68;3.70;;;9.70;99.90;;;;;;4929125;28;187076;-72
2022/03/14 05:38:32;;;;;;;8.85;3.95;;;9.70;99.90;;;;;;4964604;28;20046;-72
2022/03/14 05:40:58;;;;;;;8.10;3.88;;;9.70;99.90;;;;;;4935809;28;278600;-72
2022/03/14 05:43:27;;;;;;;8.85;3.92;;;9.60;99.90;;;;;;4984548;28;20054;-72
2022/03/14 05:45:54;;;;;;;7.70;3.40;;;9.70;99.90;;;;;;4938537;28;225691;-72
2022/03/14 05:48:20;;;;;;;9.90;4.28;;;9.70;99.90;;;;;;4986454;28;20151;-72
2022/03/14 05:50:46;;;;;;;8.65;3.85;;;9.60;99.90;;;;;;4898498;28;197634;-73
2022/03/14 05:53:12;;;;;;;8.85;3.60;;;9.70;99.90;;;;;;4968386;28;20065;-72
2022/03/14 05:55:39;;;;;;;10.90;4.10;;;9.60;99.90;;;;;;4939082;28;217404;-73
2022/03/14 05:58:06;;;;;;;8.57;4.20;;;9.60;99.90;;;;;;4983457;28;20054;-72
2022/03/14 06:00:33;;;;;;;8.90;4.13;;;9.60;99.90;;;;;;4961804;28;45546;-73
2022/03/14 06:03:00;;;;;;;8.95;3.97;;;9.60;99.90;;;;;;4975411;28;20053;-72
2022/03/14 06:05:26;;;;;;;10.00;4.22;;;9.60;99.90;;;;;;4912386;28;259507;-73
2022/03/14 06:07:52;;;;;;;8.80;4.13;;;9.60;99.90;;;;;;4970010;28;20130;-72
2022/03/14 06:10:18;;;;;;;10.18;4.57;;;9.50;99.90;;;;;;4954991;28;162362;-72
2022/03/14 06:12:45;;;;;;;8.75;3.90;;;9.50;99.90;;;;;;4979694;28;20054;-73
2022/03/14 06:15:16;;;;;;;8.68;4.20;;;9.50;99.90;;;;;;4931757;28;117474;-73
2022/03/14 06:17:43;;;;;;;9.55;4.43;;;9.50;99.90;;;;;;4962875;28;20046;-73
2022/03/14 06:20:14;;;;;;;11.43;4.38;;;9.50;99.90;;;;;;4931604;28;61887;-74
2022/03/14 06:22:42;;;;;;;9.75;4.32;;;9.50;99.90;;;;;;4969975;28;20354;-74
2022/03/14 06:25:09;;;;;;;9.77;4.43;;;9.50;99.90;;;;;;4934425;28;198782;-74
2022/03/14 06:27:35;;;;;;;8.57;4.38;;;9.40;99.90;;;;;;4989735;28;20054;-74
2022/03/14 06:30:03;;;;;;;10.55;4.70;;;9.40;99.90;;;;;;4962795;28;93297;-74
2022/03/14 06:32:34;;;;;;;10.50;4.50;;;9.40;99.90;;;;;;4973787;28;20059;-74
2022/03/14 06:35:01;;;;;;;11.93;4.93;;;9.40;99.90;;;;;;4954707;28;160568;-74
2022/03/14 06:37:27;;;;;;;9.43;4.72;;;9.40;99.90;;;;;;4978924;28;20534;-73
2022/03/14 06:39:53;;;;;;;9.02;4.63;;;9.50;99.90;;;;;;4944838;28;209939;-74
2022/03/14 06:42:19;;;;;;;9.35;4.70;;;9.40;99.90;;;;;;4990399;28;20050;-74
2022/03/14 06:44:49;;;;;;;9.02;4.70;;;9.40;99.90;;;;;;4945811;28;32015;-74
2022/03/14 06:47:21;;;;;;;10.05;5.03;;;9.40;99.90;;;;;;4977389;28;20054;-74
2022/03/14 06:49:47;;;;;;;8.93;4.55;;;9.40;99.90;;;;;;4917362;28;115868;-74
2022/03/14 06:52:15;;;;;;;8.98;4.82;;;9.40;99.90;;;;;;4969373;28;20054;-73
2022/03/14 06:54:41;;;;;;;13.68;5.07;;;9.40;99.90;;;;;;4941791;28;89585;-73
2022/03/14 06:57:09;;;;;;;8.88;4.70;;;9.40;99.90;;;;;;4978154;28;20065;-69
2022/03/14 06:59:36;;;;;;;11.68;5.15;;;9.40;99.90;;;;;;4935197;28;100941;-76
2022/03/14 07:02:03;;;;;;;11.35;5.40;;;9.40;99.90;;;;;;4970792;28;20531;-75
2022/03/14 07:04:30;;;;;;;11.30;5.07;;;9.40;99.90;;;;;;4939473;28;135060;-77
2022/03/14 07:06:56;;;;;;;10.30;4.97;;;9.30;99.90;;;;;;4962523;28;20058;-75
2022/03/14 07:09:22;;;;;;;10.00;5.07;;;9.30;99.90;;;;;;4942411;28;272488;-74
2022/03/14 07:11:51;;;;;;;9.75;5.15;;;9.30;99.90;;;;;;4991183;28;20049;-74
2022/03/14 07:14:21;;;;;;;9.98;5.30;;;9.30;99.90;;;;;;4955750;28;97121;-74
2022/03/14 07:16:48;;;;;;;9.95;5.25;;;9.30;99.90;;;;;;4993813;28;20050;-74
2022/03/14 07:19:14;;;;;;;9.93;5.32;;;9.30;99.90;;;;;;4974320;28;210727;-74
2022/03/14 07:21:40;;;;;;;10.30;5.65;;;9.30;99.90;;;;;;4944253;28;20039;-74
2022/03/14 07:24:07;;;;;;;11.50;5.45;;;9.30;99.90;;;;;;4972944;28;272852;-75
2022/03/14 07:26:33;;;;;;;10.75;5.75;;;9.30;99.90;;;;;;4947611;28;21716;-75
2022/03/14 07:29:00;;;;;;;12.63;5.57;;;9.30;99.90;;;;;;4955911;28;269624;-74
2022/03/14 07:31:26;;;;;;;11.82;6.05;;;9.30;99.90;;;;;;4932912;28;20045;-74
2022/03/14 07:33:53;;;;;;;10.60;5.53;;;9.30;99.90;;;;;;4974933;28;272134;-75
2022/03/14 07:36:19;;;;;;;11.32;5.85;;;9.20;99.90;;;;;;4955032;28;20081;-75
2022/03/14 07:38:46;;;;;;;11.20;6.20;;;9.30;99.90;;;;;;4986411;28;264031;-73
2022/03/14 07:41:12;;;;;;;10.38;5.80;;;9.30;99.90;;;;;;4964105;28;20041;-74
2022/03/14 07:43:39;;;;;;;10.43;5.80;;;9.30;99.90;;;;;;5009661;28;20411;-76
2022/03/14 07:46:06;;;;;;;10.68;6.00;;;9.30;99.90;;;;;;4930898;28;149748;-75
2022/03/14 07:48:32;;;;;;;11.00;6.20;;;9.30;99.90;;;;;;4991823;28;20150;-74
2022/03/14 07:50:58;;;;;;;11.07;5.60;;;9.30;99.90;;;;;;4965978;28;89738;-74
2022/03/14 07:53:25;;;;;;;10.00;5.63;;;9.40;99.90;;;;;;4987203;28;20069;-75
2022/03/14 07:55:52;;;;;;;11.35;5.95;;;9.40;99.90;;;;;;4943180;28;273907;-74
2022/03/14 07:58:18;;;;;;;10.85;5.80;;;9.40;99.90;;;;;;4981955;28;20455;-75
2022/03/14 08:00:44;;;;;;;11.32;5.82;;;9.40;99.90;;;;;;4963869;28;103274;-74
2022/03/14 08:03:11;;;;;;;11.02;6.30;;;9.40;99.90;;;;;;4999809;28;20057;-73
2022/03/14 08:05:37;;;;;;;10.57;5.57;;;9.50;99.90;;;;;;4928247;28;254454;-74
2022/03/14 08:08:04;;;;;;;12.27;6.45;;;9.50;99.90;;;;;;4990255;28;20038;-75
2022/03/14 08:10:30;;;;;;;11.43;6.28;;;9.50;99.90;;;;;;4957010;28;275663;-75
2022/03/14 08:12:57;;;;;;;11.60;6.22;;;9.60;99.90;;;;;;4965486;28;20042;-74
2022/03/14 08:15:23;;;;;;;12.20;6.32;;;9.60;99.90;;;;;;4932099;28;117437;-75
2022/03/14 08:17:51;;;;;;;10.70;6.15;;;9.60;99.90;;;;;;4984918;28;20049;-75
2022/03/14 08:20:17;;;;;;;11.57;6.20;;;9.60;99.90;;;;;;4967529;28;51301;-74
2022/03/14 08:22:43;;;;;;;10.63;6.30;;;9.60;99.90;;;;;;4960630;28;20530;-74
2022/03/14 08:25:11;;;;;;;11.88;6.75;;;9.60;99.90;;;;;;4937249;28;163384;-75
2022/03/14 08:27:38;;;;;;;12.63;6.82;;;9.60;99.90;;;;;;4975197;28;20404;-74
2022/03/14 08:30:06;;;;;;;12.05;7.50;;;9.60;99.90;;;;;;4945567;28;256266;-75
2022/03/14 08:32:34;;;;;;;12.15;7.07;;;9.60;99.90;;;;;;4989489;28;20058;-74
2022/03/14 08:35:07;;;;;;;12.52;6.95;;;9.70;99.90;;;;;;4944518;28;255737;-74
2022/03/14 08:37:38;;;;;;;11.98;7.57;;;9.70;99.90;;;;;;4995306;28;20594;-74
2022/03/14 08:40:06;;;;;;;;;;;9.70;99.90;;;;;;4930568;28;106744;-74
2022/03/14 08:42:32;;;;;;;12.05;7.88;;;9.70;99.90;;;;;;4967716;28;20235;-75
2022/03/14 08:44:58;;;;;;;12.55;8.20;;;9.70;99.90;;;;;;4948888;28;20057;-76
2022/03/14 08:47:24;;;;;;;13.20;8.57;;;9.70;99.90;;;;;;4984614;28;20512;-77
2022/03/14 08:49:51;;;;;;;13.07;8.25;;;9.70;99.90;;;;;;4927429;28;161349;-78
2022/03/14 08:52:17;;;;;;;13.80;9.40;;;9.70;99.90;;;;;;4971903;28;20064;-76
2022/03/14 08:54:43;;;;;;;15.32;8.73;;;9.70;99.90;;;;;;4959355;28;274407;-76
2022/03/14 08:57:09;;;;;;;14.13;9.38;;;9.70;99.90;;;;;;4990675;28;20062;-77
2022/03/14 08:59:36;;;;;;;13.70;9.30;;;9.70;99.90;;;;;;4955198;28;200022;-75
2022/03/14 09:02:02;;;;;;;14.15;9.48;;;9.70;99.90;;;;;;4999710;28;20038;-76
2022/03/14 09:04:28;;;;;;;15.70;10.13;;;9.70;99.90;;;;;;4954197;28;226493;-77
2022/03/14 09:06:55;;;;;;;14.48;9.35;;;9.80;99.90;;;;;;4974931;28;20061;-77
2022/03/14 09:09:21;;;;;;;14.23;9.18;;;9.80;99.90;;;;;;4945784;28;271975;-77
2022/03/14 09:11:47;;;;;;;13.40;9.27;;;9.80;99.90;;;;;;4954943;28;20042;-77
2022/03/14 09:14:14;;;;;;;14.30;8.18;;;9.80;99.90;;;;;;4962963;28;144500;-76
2022/03/14 09:16:40;;;;;;;13.90;8.77;;;9.80;99.90;;;;;;4954237;28;20042;-76
2022/03/14 09:19:06;;;;;;;14.07;8.75;;;9.90;99.90;;;;;;4984450;28;259465;-77
2022/03/14 09:21:33;;;;;;;13.80;8.65;;;9.90;99.90;;;;;;4949179;28;20033;-77
2022/03/14 09:24:00;;;;;;;13.48;8.23;;;9.90;99.90;;;;;;4966450;28;262772;-77
2022/03/14 09:26:26;;;;;;;13.90;8.60;;;9.80;99.90;;;;;;4957266;28;20066;-77
2022/03/14 09:28:52;;;;;;;13.23;9.13;;;9.80;99.90;;;;;;4972132;28;278839;-77
2022/03/14 09:31:19;;;;;;;15.07;10.60;;;9.80;99.90;;;;;;4955471;28;20042;-76
2022/03/14 09:33:45;;;;;;;16.15;11.70;;;9.80;99.90;;;;;;4988658;28;20062;-76
2022/03/14 09:36:11;;;;;;;20.30;14.07;;;9.80;99.90;;;;;;4945837;28;20053;-76
2022/03/14 09:38:37;;;;;;;21.00;15.32;;;9.80;99.90;;;;;;4987431;28;20046;-77
2022/03/14 09:41:05;;;;;;;21.42;15.25;;;9.70;99.90;;;;;;4933148;28;146479;-76
2022/03/14 09:43:37;;;;;;;22.40;15.73;;;9.60;99.90;;;;;;4985915;28;20057;-76
2022/03/14 09:46:07;;;;;;;22.95;16.60;;;9.60;99.90;;;;;;4939060;28;285026;-76
2022/03/14 09:48:37;;;;;;;23.15;16.80;;;9.60;99.90;;;;;;4987373;28;20042;-76
2022/03/14 09:51:05;;;;;;;24.90;17.13;;;9.60;99.90;;;;;;4957299;28;252704;-76
2022/03/14 09:53:34;;;;;;;22.00;16.33;;;9.60;99.90;;;;;;4984654;28;20091;-77
2022/03/14 09:56:00;;;;;;;22.80;16.10;;;9.50;99.90;;;;;;4969201;28;259727;-77
2022/03/14 09:58:27;;;;;;;21.33;15.43;;;9.50;99.90;;;;;;4984755;28;20053;-77
2022/03/14 10:01:03;;;;;;;26.80;15.55;;;9.50;99.90;;;;;;4944136;28;268802;-77
2022/03/14 10:03:29;;;;;;;22.90;15.45;;;9.40;99.90;;;;;;5014017;28;20411;-77
2022/03/14 10:05:56;;;;;;;19.85;12.05;;;9.40;99.90;;;;;;4920123;28;126190;-77
2022/03/14 10:08:22;;;;;;;20.42;12.07;;;9.30;99.90;;;;;;4996943;28;20507;-78
2022/03/14 10:10:49;;;;;;;19.35;10.25;;;9.20;99.90;;;;;;4926797;28;134845;-75
2022/03/14 10:13:16;;;;;;;20.48;10.35;;;9.20;99.90;;;;;;4976743;28;20057;-78
2022/03/14 10:15:43;;;;;;;19.00;11.07;;;9.10;99.90;;;;;;4952298;28;252695;-76
2022/03/14 10:18:18;;;;;;;21.10;11.63;;;9.10;99.90;;;;;;4985704;28;20046;-78
2022/03/14 10:21:13;;;;;;;22.65;13.27;;;9.10;99.90;;;;;;4936477;28;98946;-77
2022/03/14 10:23:43;;;;;;;25.00;14.45;;;9.10;99.90;;;;;;4922166;29;20052;-78
2022/03/14 10:26:16;;;;;;;26.50;16.37;;;9.10;99.90;;;;;;4872138;29;96432;-77
2022/03/14 10:28:48;;;;;;;26.33;15.60;;;9.20;99.90;;;;;;4890967;29;20301;-76
2022/03/14 10:31:26;;;;;;;26.48;15.27;;;9.30;99.90;;;;;;4879379;29;20043;-78
2022/03/14 10:33:59;;;;;;;30.75;16.58;;;9.30;99.90;;;;;;4921519;29;126378;-78
2022/03/14 10:36:57;;;;;;;27.27;15.90;;;9.40;99.90;;;;;;4909685;29;20359;-80
2022/03/14 10:39:31;;;;;;;29.83;16.45;;;9.50;99.90;;;;;;4835961;29;270186;-77
2022/03/14 10:42:00;;;;;;;26.58;14.75;;;9.50;99.90;;;;;;4871665;29;20072;-79
2022/03/14 10:44:26;;;;;;;31.48;15.35;;;9.50;99.90;;;;;;4829879;29;103848;-79
2022/03/14 10:46:52;;;;;;;30.88;14.55;;;9.60;99.90;;;;;;4860490;29;20073;-78
2022/03/14 10:49:27;;;;;;;26.77;12.85;;;9.70;99.90;;;;;;4821201;29;20071;-78
2022/03/14 10:51:57;;;;;;;26.73;13.57;;;9.80;99.90;;;;;;4847224;29;20053;-78
2022/03/14 10:54:23;;;;;;;23.65;11.98;;;9.80;99.90;;;;;;4823568;29;22491;-78
2022/03/14 10:57:05;;;;;;;25.35;12.35;;;9.90;99.90;;;;;;4841685;29;20068;-78
2022/03/14 10:59:34;;;;;;;23.83;11.98;;;10.10;99.90;;;;;;4821172;29;61833;-78
2022/03/14 11:02:01;;;;;;;26.08;11.82;;;10.20;99.90;;;;;;4909595;29;20048;-78
2022/03/14 11:04:28;;;;;;;22.30;10.85;;;10.20;99.90;;;;;;4829159;29;185892;-78
2022/03/14 11:07:00;;;;;;;21.52;9.95;;;10.20;99.90;;;;;;4898555;29;20590;-78
2022/03/14 11:09:47;;;;;;;22.50;9.65;;;10.20;99.90;;;;;;4849894;29;84769;-77
2022/03/14 11:12:18;;;;;;;20.55;9.85;;;10.20;99.90;;;;;;4876627;29;20049;-77
2022/03/14 11:15:05;;;;;;;20.48;9.45;;;10.20;99.90;;;;;;4879272;28;53321;-79
2022/03/14 11:17:33;;;;;;;23.33;9.32;;;10.20;99.90;;;;;;4969400;28;20539;-77
2022/03/14 11:20:00;;;;;;;18.05;8.80;;;10.20;99.90;;;;;;4946783;28;83809;-76
2022/03/14 11:22:27;;;;;;;21.00;8.32;;;10.20;99.90;;;;;;4980421;28;20065;-76
2022/03/14 11:24:56;;;;;;;20.10;9.43;;;10.20;99.90;;;;;;4950871;28;186825;-75
2022/03/14 11:27:22;;;;;;;22.38;10.00;;;10.10;99.90;;;;;;4966882;28;20050;-75
2022/03/14 11:29:50;;;;;;;20.20;10.00;;;10.20;99.90;;;;;;4943177;28;267992;-77
2022/03/14 11:32:17;;;;;;;21.83;10.85;;;10.20;99.90;;;;;;4980855;28;20061;-75
2022/03/14 11:34:48;;;;;;;22.90;10.02;;;10.20;99.90;;;;;;4943760;28;271391;-76
2022/03/14 11:37:16;;;;;;;23.55;11.57;;;10.20;99.90;;;;;;4951657;28;20058;-76
2022/03/14 11:39:44;;;;;;;22.15;11.05;;;10.20;99.90;;;;;;4943521;28;228930;-76
2022/03/14 11:42:12;;;;;;;24.13;11.73;;;10.20;99.90;;;;;;4986848;28;20062;-76
2022/03/14 11:44:39;;;;;;;23.83;11.27;;;10.30;99.90;;;;;;4941144;28;221179;-76
2022/03/14 11:47:09;;;;;;;25.33;11.10;;;10.30;99.90;;;;;;4982567;28;20058;-76
2022/03/14 11:49:36;;;;;;;21.95;10.45;;;10.30;99.90;;;;;;4946921;28;99375;-78
2022/03/14 11:52:14;;;;;;;19.25;10.20;;;10.30;99.90;;;;;;4973427;28;20050;-76
2022/03/14 11:54:48;;;;;;;24.17;11.15;;;10.30;99.90;;;;;;4934453;28;239860;-76
2022/03/14 11:57:33;;;;;;;27.85;11.38;;;10.30;99.90;;;;;;4963300;28;20055;-76
2022/03/14 12:00:22;;;;;;;21.13;10.77;;;10.40;99.90;;;;;;4942109;28;240520;-76
2022/03/14 12:02:49;;;;;;;22.33;11.13;;;10.40;99.90;;;;;;4982785;28;20042;-77
2022/03/14 12:05:42;;;;;;;23.92;12.70;;;10.40;99.90;;;;;;4948262;28;135465;-77
2022/03/14 12:08:28;;;;;;;22.80;12.18;;;10.50;99.90;;;;;;4980120;28;20069;-76
2022/03/14 12:10:54;;;;;;;21.80;12.30;;;10.50;99.90;;;;;;4934955;28;228925;-76
2022/03/14 12:13:43;;;;;;;23.35;13.80;;;10.50;99.90;;;;;;4984106;28;20411;-76
2022/03/14 12:16:54;;;;;;;21.92;13.82;;;10.50;99.90;;;;;;4944099;28;162106;-75
2022/03/14 12:19:27;;;;;;;27.00;16.17;;;10.60;99.90;;;;;;4953486;28;84249;-76
2022/03/14 12:21:54;;;;;;;29.30;16.40;;;10.60;99.90;;;;;;4986366;28;20046;-76
2022/03/14 12:24:45;;;;;;;27.35;17.25;;;10.70;99.90;;;;;;4941395;28;20060;-76
2022/03/14 12:27:24;;;;;;;30.38;18.15;;;10.80;99.90;;;;;;4986315;28;20058;-76
2022/03/14 12:29:54;;;;;;;30.60;19.42;;;10.80;99.90;;;;;;4940209;28;123623;-78
2022/03/14 12:32:36;;;;;;;30.37;19.93;;;10.90;99.90;;;;;;4993589;28;20061;-77
2022/03/14 12:35:05;;;;;;;31.85;20.52;;;10.90;99.90;;;;;;4948770;28;20044;-77
2022/03/14 12:37:42;;;;;;;32.60;21.88;;;11.00;99.90;;;;;;4962665;28;20552;-76
2022/03/14 12:40:20;;;;;;;30.98;21.70;;;11.10;99.90;;;;;;4939747;28;97491;-77
2022/03/14 12:43:23;;;;;;;32.78;21.75;;;11.10;99.90;;;;;;4997183;28;20050;-77
2022/03/14 12:46:00;;;;;;;34.72;21.13;;;11.10;99.90;;;;;;4935312;28;86060;-76